x

Central Aleutians 230nm Sw Dutch Harbor (46072) Wave Buoy

5:50 - Thu 25th Dec 2014 All times are UTC.

  • Sig Wave height 24.3ft
  • Peak Period 12s
  • Average Period 9s
  • Wind
    29mph, 36mph gusts
  • Sea Temp 43°f
  • Luft Temp 37°f
  • Sea Pressure 996.4mb

More Historic Weather Station data

Upgrade to MSW Pro to gain access to the past 30 days of data for over 8000 Wavebouys and Weather Stations around the globe.

Join Pro

Comparision Forecast

View Surf forecast
   
Do 12/25 5:50 24.5ft 12s 9s 29 36 mph 996.4mb 43f 37f
4:50 27ft 15s 10s 31 43 mph 995.2mb 43f 39f
3:50 23.5ft 13s 9s 34 43 mph 994.7mb 43f 38f
2:50 27ft 14s 10s 29 38 mph 993.6mb 43f 39f
1:50 24.5ft 14s 9s 34 45 mph 992.8mb 43f 37f
12:50 23ft 12s 9s 34 43 mph 991.6mb 43f 39f
Mi 12/24 11:50 23ft 13s 9s 38 49 mph 990.8mb 43f 39f
10:50 22.5ft 13s 9s 38 49 mph 990.2mb 43f 40f
9:50 22.5ft 11s 8s 38 51 mph 989.4mb 43f 40f
7:50 22.5ft 13s 9s 36 47 mph 987mb 43f 39f
6:50 18.5ft 12s 8s 38 45 mph 985.7mb 43f 40f
5:50 19ft 14s 8s 29 36 mph 986mb 43f 38f
4:50 20.5ft 14s 9s 22 31 mph 986.1mb 43f 38f
3:50 21ft 15s 9s 34 43 mph 985.1mb 43f 37f
2:50 22ft 14s 9s 36 47 mph 985.6mb 43f 40f
1:50 23ft 14s 10s 34 47 mph 987.3mb 43f 40f
12:50 21.5ft 14s 10s 27 34 mph 989.3mb 43f 40f
11:50 23.5ft 14s 10s 25 31 mph 991.5mb 43f 40f
10:50 25.5ft 15s 11s 22 27 mph 993.1mb 43f 40f
9:50 24ft 15s 11s 18 22 mph 994.3mb 43f 41f
8:50 27.5ft 14s 11s 18 25 mph 994.7mb 43f 41f
7:50 27.5ft 15s 11s 22 29 mph 994.8mb 43f 41f
6:50 25ft 14s 10s 25 34 mph 994.4mb 43f 41f
5:50 23.5ft 13s 10s 18 27 mph 994.6mb 43f 41f
4:50 21.5ft 13s 9s 27 36 mph 993.2mb 43f 41f
3:50 24ft 13s 9s 27 36 mph 991.7mb 43f 41f
2:50 22ft 12s 8s 22 31 mph 991.6mb 43f 42f
1:50 20.5ft 12s 8s 31 36 mph 990.3mb 43f 42f
12:50 20.5ft 11s 8s 34 43 mph 989.2mb 43f 42f
Di 12/23 11:50 20ft 11s 8s 36 43 mph 988.9mb 43f 41f
10:50 18.5ft 11s 8s 36 43 mph 988.1mb 43f 41f
9:50 16.5ft 12s 8s 27 34 mph 987.7mb 43f 41f
8:50 18.5ft 12s 8s 31 40 mph 986.7mb 43f 41f
7:50 19.5ft 12s 9s 34 40 mph 985.3mb 43f 42f
6:50 19ft 11s 9s 29 38 mph 984.6mb 43f 42f
5:50 21ft 11s 9s 31 38 mph 984mb 43f 43f
4:50 17ft 11s 8s 29 36 mph 982.8mb 43f 43f
3:50 16.5ft 11s 8s 25 31 mph 981.9mb 43f 43f
2:50 16.5ft 10s 8s 25 29 mph 981.4mb 43f 43f
1:50 19.5ft 10s 8s 25 31 mph 981.6mb 43f 43f
12:50 19.5ft 11s 8s 34 43 mph 983.1mb 42f 42f
11:50 20ft 10s 7s 45 54 mph 985.5mb 42f 39f
10:50 19.5ft 8s 7s 40 49 mph 989.1mb 43f 39f
9:50 16ft 9s 6s 43 54 mph 991.8mb 43f 39f
8:50 15ft 8s 6s 43 54 mph 994.3mb 43f 39f
7:50 13.5ft 8s 6s 43 49 mph 997.1mb 43f 39f
6:50 12ft 8s 6s 38 47 mph 1000mb 43f 38f
5:50 10ft 7s 5s 38 47 mph 1002.3mb 43f 38f
4:50 10ft 7s 6s 34 40 mph 1004.8mb 43f 38f
3:50 9ft 10s 6s 34 40 mph 1006.5mb 43f 38f
2:50 8ft 10s 6s 31 36 mph 1008.2mb 43f 38f
1:50 7.5ft 12s 6s 25 31 mph 1009.8mb 43f 40f
12:50 9ft 10s 6s 22 29 mph 1011.5mb 43f 40f
Mo 12/22 11:50 8.5ft 9s 7s 22 27 mph 1012.5mb 43f 40f
10:50 9ft 9s 7s 18 22 mph 1013.8mb 43f 39f
9:50 9ft 10s 7s 16 18 mph 1015mb 43f 39f
8:50 9ft 10s 7s 13 18 mph 1014.9mb 43f 39f
7:50 9ft 10s 8s 13 18 mph 1015mb 43f 39f
6:50 9ft 10s 8s 13 18 mph 1015.1mb 43f 38f
5:50 8ft 11s 8s 9 13 mph 1014.7mb 43f 37f
4:50 8ft 11s 8s 16 20 mph 1014.4mb 43f 38f
3:50 8ft 11s 9s 9 13 mph 1014.8mb 43f 39f
2:50 8ft 11s 8s 7 11 mph 1014.2mb 43f 39f
1:50 8ft 10s 8s 2 7 mph 1013.9mb 43f 39f
12:50 10ft 11s 8s 2 7 mph 1014.4mb 43f 39f
11:50 10ft 11s 8s 7 11 mph 1014.5mb 43f 39f
10:50 11ft 11s 8s 11 13 mph 1014.4mb 43f 39f
9:50 10.5ft 10s 7s 11 16 mph 1013.7mb 43f 39f
8:50 11ft 9s 8s 13 16 mph 1013.1mb 43f 39f
7:50 10ft 9s 7s 13 16 mph 1012.5mb 43f 39f
6:50 11ft 11s 8s 16 20 mph 1011.5mb 43f 39f
5:50 11ft 12s 8s 13 18 mph 1010.6mb 43f 39f
4:50 11ft 12s 8s 18 22 mph 1009.8mb 43f 39f
3:50 11ft 13s 8s 16 22 mph 1008.5mb 43f 39f
2:50 11ft 9s 7s 18 22 mph 1007.3mb 42f 38f
1:50 12ft 13s 7s 22 27 mph 1006.3mb 42f 38f
12:50 11.5ft 12s 7s 20 27 mph 1005.2mb 42f 39f
So 12/21 11:50 12.5ft 13s 8s 22 27 mph 1004.5mb 42f 39f
10:50 12.5ft 14s 7s 22 29 mph 1003.7mb 42f 39f
9:50 12.5ft 13s 7s 25 27 mph 1003.2mb 42f 39f
8:50 13ft 13s 8s 25 29 mph 1002.1mb 42f 39f
7:50 12ft 12s 8s 22 29 mph 1000.5mb 42f 40f
6:50 12ft 15s 8s 22 29 mph 998.7mb 42f 40f
5:50 13ft 12s 8s 22 27 mph 997.1mb 42f 41f
4:50 12ft 12s 8s 22 27 mph 995.5mb 43f 42f
3:50 12ft 13s 9s 22 29 mph 994.4mb 43f 42f
2:50 12.5ft 14s 9s 18 22 mph 993.2mb 43f 42f
1:50 13ft 14s 10s 18 22 mph 992.1mb 43f 42f
12:50 11.5ft 12s 9s 18 25 mph 991.1mb 43f 42f
11:50 12.5ft 14s 9s 16 20 mph 990.1mb 42f 41f
10:50 13ft 15s 9s 16 20 mph 988.9mb 43f 41f
9:50 12.5ft 15s 9s 16 20 mph 987.6mb 43f 41f
8:50 12ft 12s 9s 18 22 mph 986.3mb 43f 41f
7:50 11.5ft 15s 9s 11 18 mph 985.3mb 43f 40f